Time;durP1;ratioP1;P1;durP2;ratioP2;P2;SDS_P1;SDS_P2;PMS_P1;PMS_P2;Temp;Humidity;BMP_temperature;BMP_pressure;BME280_temperature;BME280_humidity;BME280_pressure;Samples;Min_cycle;Max_cycle;Signal;HPM_P1;HPM_P2
2023/04/08 00:00:12;;;;;;;13.55;5.78;;;10.10;99.90;;;10.01;100.00;101558.19;5182816;28;20050;-67
2023/04/08 00:02:48;;;;;;;13.45;5.38;;;10.00;99.90;;;10.02;100.00;101554.75;5162041;28;20084;-67
2023/04/08 00:05:20;;;;;;;10.98;5.25;;;10.10;99.90;;;10.03;100.00;101555.66;5171322;28;20050;-68
2023/04/08 00:07:52;;;;;;;10.63;4.53;;;10.00;99.90;;;10.04;100.00;101560.97;5175852;28;20054;-67
2023/04/08 00:10:25;;;;;;;10.13;4.80;;;10.10;99.90;;;10.05;100.00;101561.84;5182880;28;20410;-68
2023/04/08 00:12:57;;;;;;;10.82;4.78;;;10.10;99.90;;;10.05;100.00;101560.13;5182562;28;20116;-67
2023/04/08 00:15:29;;;;;;;11.00;4.75;;;10.10;99.90;;;10.06;100.00;101558.41;5174884;28;20041;-67
2023/04/08 00:18:03;;;;;;;11.70;5.75;;;10.10;99.90;;;10.05;100.00;101562.72;5181512;28;20069;-68
2023/04/08 00:20:36;;;;;;;12.20;5.00;;;10.00;99.90;;;10.05;100.00;101565.34;5166926;28;20132;-68
2023/04/08 00:23:09;;;;;;;11.73;5.28;;;10.10;99.90;;;10.06;100.00;101558.41;5182723;28;20405;-67
2023/04/08 00:25:43;;;;;;;13.48;5.50;;;10.10;99.90;;;10.05;100.00;101565.34;5182529;28;20565;-67
2023/04/08 00:28:15;;;;;;;19.58;7.03;;;10.00;99.90;;;10.02;100.00;101562.56;5182560;28;20060;-68
2023/04/08 00:30:48;;;;;;;11.75;5.50;;;10.10;99.90;;;10.01;100.00;101566.00;5182927;28;20038;-67
2023/04/08 00:33:23;;;;;;;12.73;5.55;;;10.00;99.90;;;10.00;100.00;101561.59;5172440;28;20076;-67
2023/04/08 00:35:56;;;;;;;13.40;5.15;;;10.00;99.90;;;10.00;100.00;101566.81;5174853;28;20530;-67
2023/04/08 00:38:28;;;;;;;12.13;5.75;;;10.00;99.90;;;9.99;100.00;101570.25;5184172;28;20104;-67
2023/04/08 00:41:01;;;;;;;13.90;5.03;;;10.00;99.90;;;9.98;100.00;101571.06;5186831;28;20041;-67
2023/04/08 00:43:37;;;;;;;13.98;5.97;;;10.00;99.90;;;9.98;100.00;101572.78;5186856;28;20114;-67
2023/04/08 00:46:10;;;;;;;12.73;5.85;;;10.00;99.90;;;9.96;100.00;101572.69;5178177;28;20042;-67
2023/04/08 00:48:44;;;;;;;14.90;6.40;;;10.00;99.90;;;9.96;100.00;101562.25;5171044;28;20092;-67
2023/04/08 00:51:17;;;;;;;11.98;6.03;;;10.00;99.90;;;9.96;100.00;101562.25;5178090;28;20082;-67
2023/04/08 00:53:53;;;;;;;15.20;5.88;;;10.00;99.90;;;9.98;100.00;101565.88;5177403;28;20052;-67
2023/04/08 00:56:25;;;;;;;15.35;6.70;;;10.00;99.90;;;9.98;100.00;101572.78;5183666;28;20060;-67
2023/04/08 00:58:57;;;;;;;13.32;6.20;;;10.00;99.90;;;9.94;100.00;101569.13;5180230;28;20056;-68
2023/04/08 01:01:39;;;;;;;12.63;5.88;;;10.00;99.90;;;9.94;100.00;101579.53;5176222;28;20510;-67
2023/04/08 01:04:25;;;;;;;17.70;6.70;;;10.00;99.90;;;9.92;100.00;101570.75;5178203;28;20048;-67
2023/04/08 01:07:08;;;;;;;14.10;7.07;;;10.00;99.90;;;9.93;100.00;101572.53;5178293;28;20046;-66
2023/04/08 01:09:48;;;;;;;16.08;6.18;;;10.00;99.90;;;9.94;100.00;101574.31;5176613;28;20056;-67
2023/04/08 01:12:27;;;;;;;12.38;5.53;;;10.00;99.90;;;9.96;100.00;101575.28;5178062;28;20046;-67
2023/04/08 01:15:06;;;;;;;12.45;5.60;;;10.00;99.90;;;9.98;100.00;101581.50;5185378;28;20407;-67
2023/04/08 01:17:39;;;;;;;12.80;5.78;;;10.00;99.90;;;9.97;100.00;101574.47;5184197;28;20037;-67
2023/04/08 01:20:15;;;;;;;12.73;5.40;;;10.00;99.90;;;9.95;100.00;101578.72;5184207;28;20060;-67
2023/04/08 01:23:06;;;;;;;15.70;6.35;;;10.00;99.90;;;9.95;100.00;101575.22;5179761;28;20049;-67
2023/04/08 01:25:39;;;;;;;14.00;6.20;;;10.00;99.90;;;9.96;100.00;101582.22;5185498;28;20495;-67
2023/04/08 01:28:18;;;;;;;14.65;5.95;;;10.00;99.90;;;9.94;100.00;101574.31;5175716;28;20253;-68
2023/04/08 01:30:51;;;;;;;14.73;6.07;;;10.00;99.90;;;9.91;100.00;101576.78;5179052;28;20121;-67
2023/04/08 01:33:25;;;;;;;14.98;6.07;;;10.00;99.90;;;9.89;100.00;101577.53;5177824;28;20483;-67
2023/04/08 01:36:00;;;;;;;15.32;6.70;;;10.00;99.90;;;9.90;100.00;101584.50;5185733;28;20116;-67
2023/04/08 01:38:35;;;;;;;14.63;6.50;;;9.90;99.90;;;9.88;100.00;101581.84;5176934;28;20117;-67
2023/04/08 01:41:11;;;;;;;15.13;6.35;;;9.90;99.90;;;9.87;100.00;101580.06;5185432;28;20042;-67
2023/04/08 01:43:46;;;;;;;17.52;6.93;;;9.90;99.90;;;9.88;100.00;101579.22;5177924;28;20446;-67
2023/04/08 01:46:20;;;;;;;19.77;7.10;;;9.90;99.90;;;9.89;100.00;101585.34;5177363;28;20054;-67
2023/04/08 01:48:56;;;;;;;15.35;7.43;;;9.90;99.90;;;9.85;100.00;101578.19;5185339;28;20560;-68
2023/04/08 01:51:31;;;;;;;20.33;8.02;;;9.90;99.90;;;9.81;100.00;101574.53;5185023;28;20046;-68
2023/04/08 01:54:04;;;;;;;;;;;9.80;99.90;;;9.79;100.00;101578.78;5186149;28;20029;-68
2023/04/08 01:56:41;;;;;;;17.95;7.57;;;9.80;99.90;;;9.77;100.00;101575.19;5181655;28;20405;-68
2023/04/08 01:59:17;;;;;;;17.95;7.68;;;9.80;99.90;;;9.77;100.00;101575.19;5172386;28;20498;-69
2023/04/08 02:01:53;;;;;;;17.25;7.03;;;9.90;99.90;;;9.76;100.00;101586.41;5172186;28;20042;-69
2023/04/08 02:04:25;;;;;;;17.98;6.85;;;9.80;99.90;;;9.74;100.00;101577.66;5171648;28;20569;-69
2023/04/08 02:06:58;;;;;;;15.93;7.15;;;9.80;99.90;;;9.72;100.00;101576.69;5165247;28;20046;-69
2023/04/08 02:09:32;;;;;;;16.42;7.43;;;9.80;99.90;;;9.71;100.00;101585.28;5164967;28;20112;-68
2023/04/08 02:12:05;;;;;;;14.82;7.03;;;9.70;99.90;;;9.72;100.00;101579.28;5173287;28;20056;-68
2023/04/08 02:14:39;;;;;;;15.07;6.30;;;9.70;99.90;;;9.73;100.00;101583.69;5164245;28;20042;-68
2023/04/08 02:17:15;;;;;;;17.67;6.70;;;9.80;99.90;;;9.72;100.00;101587.09;5164783;28;20053;-68
2023/04/08 02:19:53;;;;;;;17.08;7.00;;;9.70;99.90;;;9.74;100.00;101590.66;5185291;28;20398;-68
2023/04/08 02:22:36;;;;;;;16.00;6.32;;;9.70;99.90;;;9.72;100.00;101582.78;5177838;28;20402;-69
2023/04/08 02:25:15;;;;;;;14.48;6.30;;;9.70;99.90;;;9.74;100.00;101585.47;5185398;28;20388;-68
2023/04/08 02:27:48;;;;;;;15.95;6.47;;;9.70;99.90;;;9.73;100.00;101587.16;5175885;28;20049;-68
2023/04/08 02:30:25;;;;;;;17.63;6.72;;;9.70;99.90;;;9.72;100.00;101587.09;5175795;28;20038;-68
2023/04/08 02:33:01;;;;;;;16.70;6.20;;;9.70;99.90;;;9.71;100.00;101585.28;5170697;28;20141;-68
2023/04/08 02:35:34;;;;;;;14.32;6.60;;;9.70;99.90;;;9.71;100.00;101587.88;5175920;28;20558;-68
2023/04/08 02:38:06;;;;;;;15.25;6.43;;;9.70;99.90;;;9.71;100.00;101585.28;5169305;28;20640;-67
2023/04/08 02:40:39;;;;;;;14.25;5.80;;;9.70;99.90;;;9.71;100.00;101591.38;5176830;28;20117;-69
2023/04/08 02:43:11;;;;;;;16.42;7.10;;;9.70;99.90;;;9.72;100.00;101592.31;5184102;28;20052;-67
2023/04/08 02:45:46;;;;;;;16.38;6.68;;;9.70;99.90;;;9.73;100.00;101587.16;5170862;28;20491;-68
2023/04/08 02:48:18;;;;;;;14.15;6.00;;;9.70;99.90;;;9.72;100.00;101593.19;5173778;28;20570;-68
2023/04/08 02:50:51;;;;;;;15.15;6.10;;;9.70;99.90;;;9.72;100.00;101588.00;5179016;28;20100;-68
2023/04/08 02:53:24;;;;;;;12.77;6.05;;;9.70;99.90;;;9.75;100.00;101595.06;5178436;28;20053;-68
2023/04/08 02:55:56;;;;;;;14.10;5.38;;;9.70;99.90;;;9.74;100.00;101598.47;5177620;28;20123;-68
2023/04/08 02:58:29;;;;;;;13.43;5.90;;;9.70;99.90;;;9.74;100.00;101585.47;5171865;28;20121;-69
2023/04/08 03:01:05;;;;;;;12.80;5.53;;;9.70;99.90;;;9.74;100.00;101598.47;5164477;28;20125;-68
2023/04/08 03:03:38;;;;;;;16.33;6.63;;;9.70;99.90;;;9.74;100.00;101591.56;5175340;28;20046;-68
2023/04/08 03:06:10;;;;;;;15.10;6.45;;;9.70;99.90;;;9.73;100.00;101597.59;5183493;28;20042;-68
2023/04/08 03:08:43;;;;;;;16.80;6.20;;;9.70;99.90;;;9.71;100.00;101591.38;5171441;28;20042;-68
2023/04/08 03:11:16;;;;;;;12.63;4.88;;;9.70;99.90;;;9.71;100.00;101594.00;5180151;28;20046;-68
2023/04/08 03:13:49;;;;;;;13.85;5.80;;;9.70;99.90;;;9.71;100.00;101598.31;5175802;28;20136;-68
2023/04/08 03:16:22;;;;;;;14.88;6.28;;;9.70;99.90;;;9.71;100.00;101595.69;5175972;28;20492;-68
2023/04/08 03:18:55;;;;;;;14.80;5.93;;;9.70;99.90;;;9.71;100.00;101595.69;5183508;28;20041;-67
2023/04/08 03:21:27;;;;;;;14.30;5.63;;;9.70;99.90;;;9.72;100.00;101597.50;5175532;28;20125;-68
2023/04/08 03:23:59;;;;;;;12.93;5.47;;;9.70;99.90;;;9.71;100.00;101598.31;5183456;28;20104;-68
2023/04/08 03:26:34;;;;;;;12.07;4.93;;;9.70;99.90;;;9.71;100.00;101599.19;5183737;28;20042;-68
2023/04/08 03:29:09;;;;;;;16.75;7.13;;;9.70;99.90;;;9.69;100.00;101590.44;5183750;28;20056;-68
2023/04/08 03:31:43;;;;;;;15.00;5.88;;;9.70;99.90;;;9.69;100.00;101595.63;5175684;28;20088;-68
2023/04/08 03:34:15;;;;;;;16.48;6.82;;;9.70;99.90;;;9.67;100.00;101602.47;5175600;28;20045;-69
2023/04/08 03:36:47;;;;;;;15.10;5.88;;;9.70;99.90;;;9.68;100.00;101600.78;5183362;28;20402;-68
2023/04/08 03:39:19;;;;;;;16.25;5.82;;;9.70;99.90;;;9.69;100.00;101605.16;5167246;28;20046;-68
2023/04/08 03:41:52;;;;;;;11.45;5.60;;;9.70;99.90;;;9.69;100.00;101603.44;5177993;28;20038;-68
2023/04/08 03:44:24;;;;;;;13.50;5.50;;;9.70;99.90;;;9.68;100.00;101600.78;5171308;28;20526;-68
2023/04/08 03:46:58;;;;;;;16.25;5.85;;;9.70;99.90;;;9.69;100.00;101602.56;5183023;28;20046;-68
2023/04/08 03:49:30;;;;;;;15.25;6.38;;;9.70;99.90;;;9.68;100.00;101596.44;5180052;28;20057;-69
2023/04/08 03:52:03;;;;;;;15.95;6.13;;;9.70;99.90;;;9.70;100.00;101599.13;5170122;28;20056;-68
2023/04/08 03:54:35;;;;;;;12.98;5.47;;;9.70;99.90;;;9.71;100.00;101603.50;5182914;28;20042;-69
2023/04/08 03:57:07;;;;;;;14.23;5.85;;;9.70;99.90;;;9.71;100.00;101606.13;5183166;28;20121;-68
2023/04/08 03:59:40;;;;;;;11.40;5.25;;;9.70;99.90;;;9.71;100.00;101606.13;5173556;28;20054;-68
2023/04/08 04:02:14;;;;;;;16.13;5.97;;;9.70;99.90;;;9.71;100.00;101609.63;5182422;28;20046;-68
2023/04/08 04:04:46;;;;;;;13.88;5.53;;;9.70;99.90;;;9.70;100.00;101607.81;5170969;28;20046;-68
2023/04/08 04:07:18;;;;;;;15.15;5.60;;;9.70;99.90;;;9.71;100.00;101611.31;5164052;28;20415;-68
2023/04/08 04:09:52;;;;;;;16.42;6.38;;;9.70;99.90;;;9.69;100.00;101607.75;5177546;28;20047;-68
2023/04/08 04:12:25;;;;;;;16.52;6.53;;;9.70;99.90;;;9.68;100.00;101598.16;5170538;28;20121;-68
2023/04/08 04:14:58;;;;;;;16.42;6.15;;;9.70;99.90;;;9.67;100.00;101604.19;5170632;28;20122;-68
2023/04/08 04:17:31;;;;;;;14.30;6.20;;;9.70;99.90;;;9.67;100.00;101612.00;5162822;28;20308;-68
2023/04/08 04:20:05;;;;;;;16.27;6.30;;;9.70;99.90;;;9.65;100.00;101604.13;5179232;23;20043;-79
2023/04/08 04:22:38;;;;;;;17.25;6.93;;;9.70;99.90;;;9.63;100.00;101607.44;5161091;28;20043;-78
2023/04/08 04:25:11;;;;;;;18.85;7.13;;;9.70;99.90;;;9.62;100.00;101616.97;5161548;28;20047;-78
2023/04/08 04:27:44;;;;;;;18.40;7.18;;;9.70;99.90;;;9.62;100.00;101613.47;5159868;28;20046;-80
2023/04/08 04:30:18;;;;;;;19.30;7.53;;;9.70;99.90;;;9.61;100.00;101619.50;5162089;28;20038;-79
2023/04/08 04:32:52;;;;;;;18.25;7.38;;;9.70;99.90;;;9.58;100.00;101619.31;5129994;28;20057;-80
2023/04/08 04:35:24;;;;;;;17.17;6.68;;;9.70;99.90;;;9.56;100.00;101626.16;5161416;28;20518;-78
2023/04/08 04:37:56;;;;;;;15.55;6.22;;;9.70;99.90;;;9.56;100.00;101621.84;5161704;28;20046;-79
2023/04/08 04:40:29;;;;;;;19.45;7.65;;;9.60;99.90;;;9.56;100.00;101626.16;5162804;28;20523;-79
2023/04/08 04:43:02;;;;;;;17.10;7.20;;;9.60;99.90;;;9.56;100.00;101626.16;5145890;28;20121;-78
2023/04/08 04:45:34;;;;;;;18.38;7.10;;;9.60;99.90;;;9.57;100.00;101634.03;5145004;28;20042;-79
2023/04/08 04:48:08;;;;;;;16.23;7.28;;;9.60;99.90;;;9.58;100.00;101634.94;5160619;28;20054;-79
2023/04/08 04:50:41;;;;;;;17.15;6.90;;;9.60;99.90;;;9.59;100.00;101626.34;5160884;28;20046;-79
2023/04/08 04:53:13;;;;;;;17.30;6.57;;;9.60;99.90;;;9.60;100.00;101628.13;5126007;28;20047;-78
2023/04/08 04:55:45;;;;;;;19.70;7.85;;;9.60;99.90;;;9.59;100.00;101631.56;5163055;28;20097;-78
2023/04/08 04:58:19;;;;;;;17.77;7.03;;;9.60;99.90;;;9.59;100.00;101632.44;5163247;28;20047;-79
2023/04/08 05:00:54;;;;;;;17.10;7.35;;;9.60;99.90;;;9.58;100.00;101637.53;5145633;28;20038;-79
2023/04/08 05:03:28;;;;;;;18.77;7.07;;;9.60;99.90;;;9.58;100.00;101624.53;5145622;28;20117;-80
2023/04/08 05:06:01;;;;;;;20.10;7.28;;;9.70;99.90;;;9.59;100.00;101634.16;5161397;28;20058;-79
2023/04/08 05:08:34;;;;;;;16.55;6.50;;;9.60;99.90;;;9.61;100.00;101637.72;5161535;28;20048;-79
2023/04/08 05:11:10;;;;;;;18.17;6.88;;;9.60;99.90;;;9.61;100.00;101641.22;5163022;28;20122;-79
2023/04/08 05:13:44;;;;;;;17.52;6.88;;;9.70;99.90;;;9.59;100.00;101637.66;5138328;28;20128;-79
2023/04/08 05:16:17;;;;;;;24.55;9.50;;;9.60;99.90;;;9.57;100.00;101627.94;5129948;28;20053;-79
2023/04/08 05:18:51;;;;;;;19.85;7.38;;;9.60;99.90;;;9.52;100.00;101639.03;5156971;28;20512;-79
2023/04/08 05:21:26;;;;;;;17.27;6.28;;;9.60;99.90;;;9.51;100.00;101639.81;5160797;28;20046;-78
2023/04/08 05:24:00;;;;;;;18.40;7.03;;;9.60;99.90;;;9.51;100.00;101634.63;5143411;28;20050;-79
2023/04/08 05:26:32;;;;;;;18.98;7.50;;;9.50;99.90;;;9.52;100.00;101652.06;5148538;28;20132;-79
2023/04/08 05:29:06;;;;;;;16.75;6.32;;;9.60;99.90;;;9.51;100.00;101647.63;5148909;28;20050;-78
2023/04/08 05:31:38;;;;;;;21.08;7.80;;;9.60;99.90;;;9.54;100.00;101648.63;5148642;28;20050;-78
2023/04/08 05:34:12;;;;;;;21.35;8.35;;;9.60;99.90;;;9.52;100.00;101654.66;5157062;28;20503;-79
2023/04/08 05:36:45;;;;;;;23.65;8.07;;;9.50;99.90;;;9.54;100.00;101648.63;5157742;28;20121;-78
2023/04/08 05:39:18;;;;;;;19.30;7.13;;;9.60;99.90;;;9.55;100.00;101656.50;5142936;28;20166;-79
2023/04/08 05:41:51;;;;;;;18.75;7.22;;;9.60;99.90;;;9.57;100.00;101648.78;5164364;28;20050;-79
2023/04/08 05:44:25;;;;;;;17.73;6.72;;;9.60;99.90;;;9.58;100.00;101663.56;5147759;28;20053;-79
2023/04/08 05:46:59;;;;;;;23.42;8.40;;;9.60;99.90;;;9.57;100.00;101662.69;5148139;28;20066;-79
2023/04/08 05:49:34;;;;;;;20.20;8.10;;;9.60;99.90;;;9.58;100.00;101663.56;5156584;28;20401;-78
2023/04/08 05:52:07;;;;;;;19.90;7.45;;;9.60;99.90;;;9.57;100.00;101673.09;5155865;28;20046;-79
2023/04/08 05:54:43;;;;;;;21.45;8.18;;;9.60;99.90;;;9.57;100.00;101680.00;5164072;28;20046;-78
2023/04/08 05:57:16;;;;;;;19.88;8.07;;;9.60;99.90;;;9.57;100.00;101680.91;5163923;28;20054;-79
2023/04/08 05:59:50;;;;;;;17.55;7.45;;;9.60;99.90;;;9.59;100.00;101683.63;5165324;28;20050;-79
2023/04/08 06:02:22;;;;;;;20.38;8.25;;;9.60;99.90;;;9.60;100.00;101686.28;5163513;28;20046;-79
2023/04/08 06:04:56;;;;;;;22.73;8.10;;;9.60;99.90;;;9.59;100.00;101687.09;5147603;28;20527;-78
2023/04/08 06:07:28;;;;;;;20.08;7.13;;;9.60;99.90;;;9.61;100.00;101687.19;5147945;28;20054;-78
2023/04/08 06:10:04;;;;;;;19.20;7.40;;;9.60;99.90;;;9.65;100.00;101683.91;5143847;28;20093;-79
2023/04/08 06:12:37;;;;;;;17.48;7.18;;;9.60;99.90;;;9.65;100.00;101690.03;5162538;28;20562;-78
2023/04/08 06:15:10;;;;;;;21.02;7.53;;;9.70;99.90;;;9.67;100.00;101697.91;5147554;28;20053;-77
2023/04/08 06:17:43;;;;;;;18.45;7.03;;;9.70;99.90;;;9.68;100.00;101691.88;5147298;28;20054;-78
2023/04/08 06:20:17;;;;;;;18.48;6.68;;;9.70;99.90;;;9.69;100.00;101691.97;5138661;28;20054;-77
2023/04/08 06:22:52;;;;;;;18.20;7.22;;;9.70;99.90;;;9.70;100.00;101698.06;5163696;28;20042;-77
2023/04/08 06:25:24;;;;;;;20.67;7.65;;;9.70;99.90;;;9.70;100.00;101701.56;5163150;28;20046;-78
2023/04/08 06:27:56;;;;;;;26.70;8.85;;;9.70;99.90;;;9.69;100.00;101707.59;5163218;28;20045;-78
2023/04/08 06:30:29;;;;;;;24.10;8.48;;;9.80;99.90;;;9.67;100.00;101708.34;5130633;28;20131;-79
2023/04/08 06:33:01;;;;;;;22.48;8.90;;;9.70;99.90;;;9.67;100.00;101708.34;5146902;28;20038;-78
2023/04/08 06:35:36;;;;;;;25.08;9.25;;;9.70;99.90;;;9.67;100.00;101708.34;5129995;28;20046;-77
2023/04/08 06:38:09;;;;;;;22.88;9.75;;;9.70;99.90;;;9.70;100.00;101711.97;5162608;28;20089;-78
2023/04/08 06:40:41;;;;;;;23.67;8.25;;;9.70;99.90;;;9.71;100.00;101718.06;5131594;28;20042;-79
2023/04/08 06:43:15;;;;;;;19.05;7.32;;;9.70;99.90;;;9.74;100.00;101716.53;5148361;28;20046;-84
2023/04/08 06:45:50;;;;;;;22.23;7.53;;;9.80;99.90;;;9.76;100.00;101716.63;5120389;28;20146;-84
2023/04/08 06:48:27;;;;;;;21.50;7.82;;;9.70;99.90;;;9.76;100.00;101716.63;5143185;28;20086;-83
2023/04/08 06:51:02;;;;;;;22.85;7.78;;;9.80;99.90;;;9.77;100.00;101711.47;5161895;28;20078;-84
2023/04/08 06:53:35;;;;;;;22.70;8.18;;;9.80;99.90;;;9.78;100.00;101712.41;5146189;28;20148;-85
2023/04/08 06:56:07;;;;;;;21.40;8.65;;;9.80;99.90;;;9.81;100.00;101715.16;5147292;28;20411;-85
2023/04/08 06:58:40;;;;;;;20.35;6.95;;;9.80;99.90;;;9.85;100.00;101726.66;5162999;28;20042;-85
2023/04/08 07:01:12;;;;;;;16.13;6.38;;;9.80;99.90;;;9.90;100.00;101723.44;5163772;28;20413;-85
2023/04/08 07:03:47;;;;;;;19.40;8.70;;;9.90;99.90;;;10.37;100.00;101719.81;5162570;28;20454;-84
2023/04/08 07:06:21;;;;;;;19.50;8.23;;;10.40;99.90;;;10.47;100.00;101719.44;5156478;28;20465;-84
2023/04/08 07:08:54;;;;;;;20.83;8.50;;;10.50;99.90;;;10.43;100.00;101727.03;5163141;28;20521;-83
2023/04/08 07:11:26;;;;;;;26.15;9.00;;;10.50;99.90;;;10.35;100.00;101726.66;5129994;28;20070;-84
2023/04/08 07:13:59;;;;;;;20.23;7.22;;;10.40;99.90;;;10.32;100.00;101732.59;5166940;28;20046;-86
2023/04/08 07:16:34;;;;;;;19.10;8.23;;;10.40;99.90;;;10.31;100.00;101727.31;5164561;28;20402;-84
2023/04/08 07:19:10;;;;;;;21.30;7.63;;;10.30;99.90;;;10.31;100.00;101735.16;5144539;28;20063;-86
2023/04/08 07:21:45;;;;;;;19.75;7.38;;;10.30;99.90;;;10.30;100.00;101738.53;5152075;28;20178;-87
2023/04/08 07:24:17;;;;;;;21.85;7.75;;;10.30;99.90;;;10.32;100.00;101740.44;5166181;28;20038;-87
2023/04/08 07:26:50;;;;;;;20.58;8.05;;;10.30;99.90;;;10.34;100.00;101748.31;5140154;28;20062;-84
2023/04/08 07:29:23;;;;;;;18.60;7.45;;;10.30;99.90;;;10.35;100.00;101744.00;5163841;28;20050;-86
2023/04/08 07:31:58;;;;;;;19.73;7.18;;;10.30;99.90;;;10.35;100.00;101744.88;5148370;28;20541;-86
2023/04/08 07:34:31;;;;;;;20.67;7.20;;;10.40;99.90;;;10.38;100.00;101755.50;5162016;28;20042;-86
2023/04/08 07:37:05;;;;;;;20.00;7.63;;;10.40;99.90;;;10.39;100.00;101759.88;5164176;28;20046;-84
2023/04/08 07:39:40;;;;;;;21.30;8.25;;;10.40;99.90;;;10.40;100.00;101752.94;5146694;28;20141;-85
2023/04/08 07:42:13;;;;;;;29.30;10.82;;;10.40;99.90;;;10.42;100.00;101757.41;5135138;28;20066;-88
2023/04/08 07:44:46;;;;;;;22.27;8.80;;;10.40;99.90;;;10.46;100.00;101764.59;5163530;28;20056;-88
2023/04/08 07:47:20;;;;;;;25.58;11.00;;;10.40;99.90;;;10.51;100.00;101757.91;5142918;28;20408;-85
2023/04/08 07:49:53;;;;;;;27.60;10.55;;;10.40;99.90;;;10.51;100.00;101767.44;5161598;28;20606;-86
2023/04/08 07:52:27;;;;;;;30.83;11.13;;;10.50;99.90;;;10.48;100.00;101768.16;5162069;28;20145;-83
2023/04/08 07:55:00;;;;;;;28.23;10.85;;;10.50;99.90;;;10.48;100.00;101768.16;5149014;28;20056;-86
2023/04/08 07:57:33;;;;;;;31.52;12.15;;;10.50;99.90;;;10.49;100.00;101769.03;5162329;28;20057;-85
2023/04/08 08:00:08;;;;;;;34.30;12.30;;;10.50;99.90;;;10.45;100.00;101770.63;5147486;28;20046;-88
2023/04/08 08:02:46;;;;;;;27.83;10.55;;;10.40;99.90;;;10.41;100.00;101770.38;5165434;28;20042;-88
2023/04/08 08:05:19;;;;;;;30.42;12.23;;;10.50;99.90;;;10.41;100.00;101771.25;5163415;28;20645;-85
2023/04/08 08:07:53;;;;;;;37.70;14.50;;;10.40;99.90;;;10.41;100.00;101779.09;5147120;28;20042;-86
2023/04/08 08:10:26;;;;;;;30.40;11.50;;;10.50;99.90;;;10.38;100.00;101781.56;5163996;28;20051;-87
2023/04/08 08:12:58;;;;;;;27.70;10.15;;;10.40;99.90;;;10.38;100.00;101793.69;5139890;28;20066;-86
2023/04/08 08:15:30;;;;;;;25.00;9.52;;;10.40;99.90;;;10.40;100.00;101794.66;5163794;28;20407;-87
2023/04/08 08:18:03;;;;;;;24.20;9.02;;;10.40;99.90;;;10.43;100.00;101790.50;5164230;28;20053;-86
2023/04/08 08:20:36;;;;;;;23.42;9.45;;;10.40;99.90;;;10.49;100.00;101795.13;5146346;28;20070;-86
2023/04/08 08:23:10;;;;;;;22.77;9.00;;;10.40;99.90;;;10.57;100.00;101799.03;5156304;28;20081;-86
2023/04/08 08:25:43;;;;;;;22.55;9.65;;;10.50;99.90;;;10.64;100.00;101800.22;5148270;28;20042;-86
2023/04/08 08:28:15;;;;;;;25.75;9.40;;;10.60;99.90;;;10.74;100.00;101795.53;5164602;28;20139;-88
2023/04/08 08:30:48;;;;;;;22.02;9.20;;;10.70;99.90;;;10.81;100.00;101792.41;5161130;28;20597;-87
2023/04/08 08:33:20;;;;;;;29.83;11.63;;;10.70;99.90;;;10.86;100.00;101792.66;5159107;28;20070;-87
2023/04/08 08:35:54;;;;;;;27.08;10.82;;;10.80;99.90;;;10.86;100.00;101797.88;5156131;28;20051;-86
2023/04/08 08:38:28;;;;;;;28.70;10.68;;;10.80;99.90;;;10.89;100.00;101800.66;5163406;28;20050;-86
2023/04/08 08:41:02;;;;;;;27.77;9.88;;;10.80;99.90;;;10.87;100.00;101803.16;5155851;28;20485;-87
2023/04/08 08:43:36;;;;;;;24.73;10.75;;;10.80;99.90;;;10.87;100.00;101804.88;5163584;28;20055;-87
2023/04/08 08:46:12;;;;;;;22.00;8.88;;;10.80;99.90;;;10.92;100.00;101803.38;5143580;28;20043;-88
2023/04/08 08:48:44;;;;;;;23.80;8.82;;;10.80;99.90;;;10.99;100.00;101804.59;5146877;28;20046;-88
2023/04/08 08:51:17;;;;;;;23.83;9.38;;;10.90;99.90;;;11.07;100.00;101808.44;5164172;28;20070;-88
2023/04/08 08:53:52;;;;;;;22.58;9.45;;;10.90;99.90;;;11.24;100.00;101809.28;5164109;28;20053;-88
2023/04/08 08:56:24;;;;;;;22.50;8.10;;;11.10;99.90;;;11.42;100.00;101812.78;5184333;28;20054;-89
2023/04/08 09:01:43;;;;;;;28.42;11.50;;;11.40;99.90;;;11.57;100.00;101818.72;5153325;28;20410;-89
2023/04/08 09:04:18;;;;;;;25.05;10.48;;;11.40;99.90;;;11.53;100.00;101821.09;5167013;28;20056;-87
2023/04/08 09:07:09;;;;;;;26.88;10.10;;;11.50;99.90;;;11.58;100.00;101823.09;5183079;28;20077;-86
2023/04/08 09:09:50;;;;;;;25.60;10.20;;;11.50;99.90;;;11.62;100.00;101822.44;5150579;28;20058;-86
2023/04/08 09:12:23;;;;;;;25.92;10.20;;;11.50;99.90;;;11.64;100.00;101818.16;5130752;28;20404;-87
2023/04/08 09:15:07;;;;;;;28.10;10.45;;;11.50;99.90;;;11.64;100.00;101826.00;5150777;28;20049;-87
2023/04/08 09:17:42;;;;;;;23.95;9.77;;;11.50;99.90;;;11.64;100.00;101823.41;5149846;28;20260;-88
2023/04/08 09:20:14;;;;;;;13.35;5.05;;;11.50;99.90;;;12.09;100.00;101826.38;5147933;28;20042;-84
2023/04/08 09:22:58;;;;;;;17.00;5.82;;;12.10;99.90;;;12.81;100.00;101826.88;5149086;28;20057;-85
2023/04/08 09:25:34;;;;;;;22.27;7.90;;;12.80;99.90;;;13.41;100.00;101822.38;5148862;28;20061;-86
2023/04/08 09:28:20;;;;;;;23.45;9.07;;;13.50;99.90;;;13.42;100.00;101836.38;5145848;28;20070;-86
2023/04/08 09:30:55;;;;;;;22.63;8.90;;;13.50;99.90;;;13.35;100.00;101836.97;5158279;28;20116;-86
2023/04/08 09:33:31;;;;;;;22.83;9.60;;;13.40;99.90;;;13.25;100.00;101835.72;5166305;28;20070;-85
2023/04/08 09:36:05;;;;;;;26.70;10.38;;;13.30;99.90;;;13.14;100.00;101832.63;5163677;28;20046;-86
2023/04/08 09:38:38;;;;;;;24.30;10.00;;;13.20;99.90;;;13.01;100.00;101830.31;5165347;28;20137;-87
2023/04/08 09:41:15;;;;;;;24.10;9.68;;;13.00;99.90;;;13.00;100.00;101833.78;5149632;28;20054;-86
2023/04/08 09:43:50;;;;;;;23.80;10.13;;;12.90;99.90;;;12.99;100.00;101832.88;5150057;28;20458;-86
2023/04/08 09:46:27;;;;;;;;;;;12.90;99.90;;;13.03;100.00;101840.00;5166768;28;20066;-86
2023/04/08 09:49:07;;;;;;;22.40;9.02;;;12.90;99.90;;;13.10;100.00;101838.53;5141276;28;19925;-87
2023/04/08 09:51:50;;;;;;;25.40;9.90;;;13.00;99.90;;;13.20;100.00;101848.59;5165191;28;20057;-87
2023/04/08 09:54:25;;;;;;;22.52;9.25;;;13.10;99.90;;;13.41;100.00;101845.06;5165386;28;20581;-86
2023/04/08 09:57:05;;;;;;;25.60;9.43;;;13.20;99.90;;;13.53;100.00;101849.06;5138501;28;20558;-85
2023/04/08 09:59:42;;;;;;;24.63;9.80;;;13.30;99.90;;;13.57;100.00;101844.84;5146891;28;20709;-86
2023/04/08 10:02:21;;;;;;;24.58;9.93;;;13.40;99.90;;;13.59;100.00;101843.19;5165613;28;20141;-85
2023/04/08 10:04:57;;;;;;;26.15;10.13;;;13.40;99.90;;;13.67;100.00;101835.59;5158466;28;20061;-84
2023/04/08 10:07:30;;;;;;;22.60;9.02;;;13.50;99.90;;;13.69;100.00;101850.56;5164408;28;20042;-72
2023/04/08 10:10:10;;;;;;;23.70;9.95;;;13.50;99.90;;;13.95;100.00;101837.53;5165755;28;20045;-84
2023/04/08 10:12:44;;;;;;;28.15;10.20;;;13.80;99.90;;;13.88;100.00;101838.16;5166088;28;20675;-84
2023/04/08 10:15:25;;;;;;;29.00;10.82;;;13.80;99.90;;;13.69;100.00;101831.31;5148411;28;20046;-87
2023/04/08 10:20:54;;;;;;;28.15;10.38;;;13.50;99.90;;;13.34;100.00;101843.03;5143420;28;19965;-81
2023/04/08 10:23:57;;;;;;;32.25;11.15;;;13.30;99.90;;;13.12;100.00;101838.63;5147741;28;20513;-81
2023/04/08 10:26:39;;;;;;;28.40;10.23;;;13.10;99.90;;;12.97;100.00;101846.72;5162425;28;20047;-82
2023/04/08 10:29:43;;;;;;;27.73;10.73;;;13.00;99.90;;;12.85;100.00;101841.00;5148769;28;20050;-83
2023/04/08 10:32:30;;;;;;;28.10;10.57;;;12.80;99.90;;;12.82;100.00;101846.09;5144267;28;20042;-82
2023/04/08 10:35:03;;;;;;;33.08;11.98;;;12.70;99.90;;;12.77;100.00;101840.66;5142132;28;20054;-82
2023/04/08 10:37:35;;;;;;;33.83;11.93;;;12.70;99.90;;;12.70;100.00;101849.06;5147285;28;20771;-82
2023/04/08 10:40:19;;;;;;;22.67;9.23;;;12.60;99.90;;;12.71;100.00;101846.53;5148085;28;20043;-78